Weather observations for the past three days for
Chillicothe, Chillicothe Agri-Science Center
Imperial (Metric)
Date Time (cdt) Wind (mph) Vis. (mi.) Weather Sky Cond. Temperature (ºF) Relative Humidity Wind Chill (°F) Heat Index (°F) Pressure Precipitation (in)
Air Dwpt 6 hour altimeter (in) sea level (mb) 1 hr 3 hr 6 hr
Max. Min.
31 11:51 S 9 0.00 NULL NULL 91 66.9 45% 94 29.96 1012.7
31 10:51 Vrbl 7 0.00 NULL NULL 89.1 66 47% 92 29.96 1012.8
31 09:51 S 10 0.00 NULL NULL 84 66 55% 86 29.96 1012.8
31 08:51 S 9 G 20 0.00 NULL NULL 79 64 60% 81 29.96 1012.9
31 07:51 S 10 0.00 NULL NULL 75.9 64 67% 78 29.95 1012.7
31 06:51 S 8 0.00 NULL NULL 75 64 81 75 69% 77 29.94 1012.1
31 05:51 S 6 0.00 NULL NULL 75.9 64 67% 78 29.94 1012.0
31 04:51 S 6 0.00 NULL NULL 77 64 64% 79 29.93 1011.7
31 03:51 S 8 0.00 NULL NULL 78.1 64 62% 80 29.93 1011.6
31 02:51 S 10 0.00 NULL NULL 80.1 64 58% 82 29.91 1011.1
31 01:51 S 5 0.00 NULL NULL 79 64 60% 81 29.9 1010.9
31 00:51 S 6 0.00 NULL NULL 81 64 91.9 80.1 57% 83 29.9 1010.8
30 23:51 S 6 0.00 NULL NULL 81 64.9 58% 83 29.9 1010.9
30 22:51 S 5 0.00 NULL NULL 80.1 66.9 64% 82 29.9 1011.0
30 21:51 SE 5 0.00 NULL NULL 82 66.9 60% 85 29.9 1011.1
30 20:51 S 3 0.00 NULL NULL 84 68 59% 87 29.88 1010.5
30 19:51 SE 5 0.00 NULL NULL 88 68 52% 92 29.86 1009.7
30 18:51 S 6 0.00 NULL NULL 91.9 68 96.1 90 46% 96 29.86 1009.3
30 17:51 S 7 G 16 0.00 NULL NULL 93.9 68 43% 98 29.86 1009.3
30 16:51 S 8 G 20 0.00 NULL NULL 95 66.9 40% 99 29.86 1009.3
30 15:51 S 8 G 20 0.00 NULL NULL 96.1 69.1 41% 102 29.87 1009.9
30 14:51 S 12 G 25 0.00 NULL NULL 93.9 66.9 41% 98 29.9 1010.7
30 13:51 S 9 G 23 0.00 NULL NULL 91.9 66.9 44% 95 29.9 1011.0
30 12:51 S 16 G 22 0.00 NULL NULL 90 66 90 75 45% 93 29.92 1011.6
30 11:51 S 13 G 17 0.00 NULL NULL 87.1 66 50% 89 29.94 1012.3
30 10:51 S 12 0.00 NULL NULL 82 64 55% 84 29.95 1012.6
30 09:51 Vrbl 5 0.00 NULL NULL 79 64 60% 81 29.95 1012.8
30 08:51 S 13 G 21 0.00 NULL NULL 78.1 62.1 58% 80 29.93 1012.1
30 07:51 S 12 0.00 NULL NULL 75.9 62.1 62% 78 29.94 1012.3
30 06:51 S 6 0.00 NULL NULL 75 61 78.1 75 62% 77 29.94 1012.2
30 05:51 S 8 0.00 NULL NULL 75.9 61 60% 78 29.94 1012.1
30 04:51 S 8 0.00 NULL NULL 75.9 61 60% 78 29.94 1012.3
30 03:51 S 8 0.00 NULL NULL 75 61 62% 77 29.93 1011.9
30 02:51 S 6 0.00 NULL NULL 75 62.1 64% 77 29.92 1011.6
30 01:51 S 8 0.00 NULL NULL 77 63 62% 79 29.93 1011.8
30 00:51 S 6 0.00 NULL NULL 77 64 88 75.9 64% 79 29.94 1012.1
29 23:51 S 6 0.00 NULL NULL 77 66 69% 79 29.94 1012.4
29 22:51 S 6 0.00 NULL NULL 78.1 66 67% 80 29.94 1012.6
29 21:51 S 8 0.00 NULL NULL 81 66 61% 83 29.94 1012.5
29 20:51 S 7 0.00 NULL NULL 82.9 66.9 59% 86 29.92 1012.0
29 19:51 Vrbl 7 G 16 0.00 NULL NULL 84.9 69.1 59% 89 29.91 1011.4
29 18:51 SE 8 0.00 NULL NULL 88 66 93 86 48% 90 29.92 1011.8
29 17:51 Vrbl 6 0.00 NULL NULL 91 66 44% 94 29.92 1011.8
29 16:51 S 10 G 18 0.00 NULL NULL 91.9 66 43% 95 29.93 1012.0
29 15:51 S 12 G 21 0.00 NULL NULL 91.9 66 43% 95 29.95 1012.8
29 14:51 S 9 0.00 NULL NULL 91.9 66.9 44% 95 29.97 1013.4
29 13:51 S 13 G 22 0.00 NULL NULL 90 66 45% 93 29.98 1013.9
29 12:51 S 12 G 20 0.00 NULL NULL 86 66 86 66 51% 88 30.02 1015.1
29 11:51 S 9 G 18 0.00 NULL NULL 82 64.9 56% 84 30.04 1016.1
29 10:51 S 13 0.00 NULL NULL 78.1 63 60% 80 30.05 1016.5
29 09:51 S 7 0.00 NULL NULL 73.9 63 69% 30.08 1017.4
29 08:51 S 5 0.00 NULL NULL 70 61 73% 30.08 1017.5
29 07:51 S 5 0.00 NULL NULL 68 60.1 76% 30.08 1017.6
29 06:51 S 5 0.00 NULL NULL 66 59 69.1 66 78% 30.07 1017.1
29 05:51 SE 5 0.00 NULL NULL 66.9 59 76% 30.08 1017.3
29 04:51 S 3 0.00 NULL NULL 66 59 78% 30.08 1017.4
29 03:51 S 6 0.00 NULL NULL 68 59 73% 30.09 1017.7
29 02:51 S 3 0.00 NULL NULL 68 59 73% 30.09 1017.7
29 01:51 S 3 0.00 NULL NULL 69.1 60.1 73% 30.09 1017.7
29 00:51 SE 3 0.00 NULL NULL 69.1 60.1 81 66.9 73% 30.1 1018.0
28 23:51 S 3 0.00 NULL NULL 70 60.1 71% 30.09 1017.8
28 22:51 Vrbl 3 0.00 NULL NULL 72 59 64% 30.1 1017.9
28 21:51 S 3 0.00 NULL NULL 71.1 62.1 73% 30.1 1018.2
28 20:51 Calm 0.00 NULL NULL 71.1 63 76% 30.09 1018.1
28 19:51 Calm 0.00 NULL NULL 75.9 62.1 62% 78 30.08 1017.7
28 18:51 S 5 0.00 NULL NULL 81 62.1 86 81 53% 82 30.08 1017.9
28 17:51 S 5 0.00 NULL NULL 84 62.1 48% 85 30.1 1018.2
28 16:51 S 5 0.00 NULL NULL 84.9 59 42% 85 30.1 1018.0
28 15:51 Vrbl 6 0.00 NULL NULL 84 57.9 41% 83 30.11 1018.6
28 14:51 Vrbl 5 0.00 NULL NULL 84 57 40% 83 30.13 1019.3
28 13:51 S 8 0.00 NULL NULL 84.9 59 42% 85 30.15 1019.9
28 12:51 E 5 0.00 NULL NULL 82.9 60.1 82.9 57 46% 83 30.17 1020.5
Date Time (cdt) Wind (mph) Vis. (mi.) Weather Sky Cond. Air Dwpt Max. Min. Relative Humidity Wind Chill (°F) Heat Index (°F) altimeter (in) sea level (mb) 1 hr 3 hr 6 hr
6 hour
Temperature (ºF) Pressure Precipitation (in)